Time;durP1;ratioP1;P1;durP2;ratioP2;P2;SDS_P1;SDS_P2;PMS_P1;PMS_P2;Temp;Humidity;BMP_temperature;BMP_pressure;BME280_temperature;BME280_humidity;BME280_pressure;Samples;Min_cycle;Max_cycle;Signal;HPM_P1;HPM_P2
2021/09/23 00:00:06;;;;;;;35.22;25.25;;;12.00;82.00;;;;;;4997782;28;20030;-70
2021/09/23 00:05:25;;;;;;;32.08;25.58;;;11.90;82.50;;;;;;4999375;28;20061;-69
2021/09/23 00:07:54;;;;;;;33.70;26.02;;;11.90;82.60;;;;;;4998731;28;20035;-70
2021/09/23 00:10:32;;;;;;;34.22;25.48;;;11.80;82.30;;;;;;4996300;28;20049;-69
2021/09/23 00:12:58;;;;;;;33.83;25.85;;;11.80;82.50;;;;;;5001420;28;20482;-70
2021/09/23 00:15:25;;;;;;;34.97;26.88;;;11.80;82.70;;;;;;5002162;28;20102;-70
2021/09/23 00:17:55;;;;;;;40.00;28.17;;;11.80;83.00;;;;;;4996135;28;20039;-71
2021/09/23 00:20:26;;;;;;;38.80;27.75;;;11.80;83.10;;;;;;4999557;28;20043;-72
2021/09/23 00:22:53;;;;;;;38.60;28.83;;;11.80;83.30;;;;;;5002180;28;20038;-70
2021/09/23 00:25:19;;;;;;;36.65;27.45;;;11.80;83.40;;;;;;5001593;28;20436;-71
2021/09/23 00:27:45;;;;;;;37.03;27.55;;;11.70;83.50;;;;;;5001660;28;20502;-71
2021/09/23 00:30:12;;;;;;;39.17;29.80;;;11.80;83.70;;;;;;4998476;28;20098;-69
2021/09/23 00:32:38;;;;;;;41.75;30.38;;;11.70;83.80;;;;;;5000162;28;20042;-72
2021/09/23 00:35:05;;;;;;;38.13;29.60;;;11.70;83.90;;;;;;5000300;28;20034;-71
2021/09/23 00:37:31;;;;;;;39.72;32.40;;;11.70;83.90;;;;;;5000347;28;20046;-70
2021/09/23 00:39:57;;;;;;;43.20;32.33;;;11.70;84.00;;;;;;5005778;28;20371;-69
2021/09/23 00:42:22;;;;;;;39.30;30.20;;;11.70;84.10;;;;;;5000749;28;20114;-70
2021/09/23 00:45:00;;;;;;;39.85;30.00;;;11.70;84.10;;;;;;5007129;28;20034;-71
2021/09/23 00:47:26;;;;;;;41.85;31.95;;;11.60;84.20;;;;;;5004909;28;20061;-69
2021/09/23 00:49:53;;;;;;;41.25;32.17;;;11.60;84.30;;;;;;4997382;28;20474;-68
2021/09/23 00:52:19;;;;;;;40.50;31.65;;;11.60;84.40;;;;;;4993090;28;20054;-69
2021/09/23 00:54:46;;;;;;;41.75;32.25;;;11.60;84.50;;;;;;5003086;28;20031;-70
2021/09/23 00:57:17;;;;;;;41.80;31.05;;;11.60;84.30;;;;;;4996839;28;20045;-70
2021/09/23 00:59:44;;;;;;;38.13;30.48;;;11.60;84.20;;;;;;4992549;28;20058;-71
2021/09/23 01:02:10;;;;;;;41.45;31.95;;;11.60;84.20;;;;;;4993264;28;20038;-68
2021/09/23 01:04:36;;;;;;;46.60;33.25;;;11.50;84.30;;;;;;4999400;28;20064;-68
2021/09/23 01:07:02;;;;;;;45.83;31.88;;;11.50;84.40;;;;;;5014686;28;20060;-69
2021/09/23 01:09:28;;;;;;;47.42;35.28;;;11.50;84.50;;;;;;5019591;28;20045;-69
2021/09/23 01:11:53;;;;;;;47.88;34.65;;;11.50;84.80;;;;;;5026730;28;20041;-68
2021/09/23 01:14:19;;;;;;;42.92;32.95;;;11.50;85.10;;;;;;5022424;28;20073;-73
2021/09/23 01:16:44;;;;;;;42.85;32.80;;;11.50;85.10;;;;;;5022869;28;20042;-68
2021/09/23 01:19:11;;;;;;;44.50;32.95;;;11.50;85.00;;;;;;5017851;28;20089;-68
2021/09/23 01:21:37;;;;;;;43.25;32.80;;;11.40;85.00;;;;;;5026573;28;20037;-69
2021/09/23 01:24:03;;;;;;;47.17;33.20;;;11.50;85.10;;;;;;5017992;28;20034;-68
2021/09/23 01:26:31;;;;;;;45.55;34.92;;;11.40;85.30;;;;;;5016071;28;20050;-69
2021/09/23 01:28:57;;;;;;;43.65;33.78;;;11.40;85.30;;;;;;5021850;28;20042;-69
2021/09/23 01:31:23;;;;;;;42.63;34.20;;;11.40;85.50;;;;;;5016978;28;20667;-68
2021/09/23 01:33:50;;;;;;;45.05;34.55;;;11.30;85.60;;;;;;5023297;28;20049;-70
2021/09/23 01:36:16;;;;;;;45.50;34.83;;;11.30;85.60;;;;;;5021745;28;20056;-71
2021/09/23 01:38:42;;;;;;;43.50;34.35;;;11.30;85.80;;;;;;5016941;28;20085;-70
2021/09/23 01:41:09;;;;;;;44.65;33.22;;;11.30;85.80;;;;;;5021562;28;20109;-72
2021/09/23 01:43:34;;;;;;;37.90;31.80;;;11.30;85.70;;;;;;5022045;28;20041;-70
2021/09/23 01:46:00;;;;;;;42.83;33.83;;;11.20;85.60;;;;;;5016390;28;20038;-68
2021/09/23 01:48:26;;;;;;;43.90;33.50;;;11.20;85.70;;;;;;5024415;28;20038;-70
2021/09/23 01:50:51;;;;;;;39.42;31.05;;;11.20;85.50;;;;;;5017989;28;20045;-70
2021/09/23 01:53:17;;;;;;;40.67;32.42;;;11.20;85.40;;;;;;5018847;28;20045;-71
2021/09/23 01:55:43;;;;;;;44.55;33.95;;;11.10;85.50;;;;;;5020613;28;20034;-68
2021/09/23 01:58:08;;;;;;;45.10;33.20;;;11.10;85.70;;;;;;5020603;28;20061;-69
2021/09/23 02:00:34;;;;;;;47.53;35.28;;;11.10;85.60;;;;;;5017082;28;20043;-73
2021/09/23 02:03:00;;;;;;;46.88;34.67;;;11.10;85.50;;;;;;5015718;28;20113;-69
2021/09/23 02:05:26;;;;;;;43.20;32.97;;;11.10;85.60;;;;;;5016050;28;20587;-68
2021/09/23 02:07:51;;;;;;;42.08;33.08;;;11.00;85.60;;;;;;5019347;28;20037;-73
2021/09/23 02:10:17;;;;;;;45.25;34.53;;;10.90;85.70;;;;;;5012793;28;20049;-69
2021/09/23 02:12:43;;;;;;;44.45;35.35;;;11.00;85.80;;;;;;5015885;28;20042;-69
2021/09/23 02:15:09;;;;;;;45.53;34.60;;;10.90;85.70;;;;;;5015680;28;20057;-69
2021/09/23 02:17:35;;;;;;;46.22;35.17;;;10.90;85.80;;;;;;5017753;28;20040;-74
2021/09/23 02:20:00;;;;;;;47.28;35.08;;;10.90;85.80;;;;;;5019819;28;20061;-70
2021/09/23 02:22:26;;;;;;;51.08;40.28;;;10.90;86.00;;;;;;5022522;28;20041;-69
2021/09/23 02:24:52;;;;;;;46.90;35.92;;;10.90;86.20;;;;;;5018643;28;21536;-70
2021/09/23 02:27:19;;;;;;;48.13;37.35;;;10.90;86.40;;;;;;5020739;28;20440;-70
2021/09/23 02:29:45;;;;;;;52.15;39.03;;;10.80;86.50;;;;;;5016573;28;20058;-69
2021/09/23 02:32:11;;;;;;;53.65;38.20;;;10.90;86.60;;;;;;5019575;28;20052;-70
2021/09/23 02:34:37;;;;;;;50.20;38.85;;;10.90;86.60;;;;;;5018606;28;20049;-73
2021/09/23 02:37:04;;;;;;;53.25;39.45;;;10.80;86.60;;;;;;5015923;28;20098;-69
2021/09/23 02:39:30;;;;;;;51.70;38.60;;;10.80;86.70;;;;;;5021067;28;20037;-71
2021/09/23 02:41:56;;;;;;;49.25;39.30;;;10.90;86.90;;;;;;5019195;28;20038;-70
2021/09/23 02:44:21;;;;;;;57.25;41.38;;;10.90;87.00;;;;;;5018606;28;20044;-71
2021/09/23 02:46:47;;;;;;;50.88;38.17;;;10.90;86.90;;;;;;5017953;28;20037;-69
2021/09/23 02:49:13;;;;;;;54.47;42.15;;;10.80;87.00;;;;;;5018526;28;20046;-71
2021/09/23 02:51:38;;;;;;;56.50;43.83;;;10.80;87.20;;;;;;5021402;28;20535;-69
2021/09/23 02:54:04;;;;;;;54.15;39.85;;;10.80;87.20;;;;;;5026095;28;20030;-69
2021/09/23 02:56:30;;;;;;;53.03;40.22;;;10.80;87.30;;;;;;5026249;28;20030;-69
2021/09/23 02:58:56;;;;;;;52.00;39.97;;;10.80;87.40;;;;;;5022897;28;20052;-70
2021/09/23 03:01:22;;;;;;;53.20;40.15;;;10.80;87.40;;;;;;5016404;28;20030;-73
2021/09/23 03:03:47;;;;;;;52.88;41.65;;;10.80;87.30;;;;;;5024657;28;20501;-72
2021/09/23 03:06:13;;;;;;;55.40;43.13;;;10.80;87.30;;;;;;5022085;28;20042;-70
2021/09/23 03:08:39;;;;;;;54.20;41.20;;;10.80;87.20;;;;;;5024522;28;20033;-70
2021/09/23 03:11:05;;;;;;;53.67;41.22;;;10.80;87.30;;;;;;5023177;28;20030;-70
2021/09/23 03:13:31;;;;;;;51.50;39.88;;;10.80;87.30;;;;;;5016969;28;20060;-70
2021/09/23 03:15:57;;;;;;;61.78;43.45;;;10.80;87.40;;;;;;5018031;28;20477;-69
2021/09/23 03:18:22;;;;;;;58.25;43.40;;;10.80;87.60;;;;;;5014065;28;20041;-72
2021/09/23 03:20:49;;;;;;;60.97;42.70;;;10.70;87.70;;;;;;5019935;28;20060;-69
2021/09/23 03:23:15;;;;;;;56.65;41.72;;;10.70;87.70;;;;;;5020928;28;20042;-69
2021/09/23 03:25:41;;;;;;;57.70;42.60;;;10.70;87.80;;;;;;5020238;28;20042;-69
2021/09/23 03:28:07;;;;;;;55.03;40.10;;;10.70;87.80;;;;;;5013494;28;20048;-69
2021/09/23 03:30:34;;;;;;;53.38;40.72;;;10.60;87.80;;;;;;5019229;28;20037;-70
2021/09/23 03:33:02;;;;;;;55.03;41.25;;;10.60;87.80;;;;;;5009326;28;20113;-69
2021/09/23 03:35:27;;;;;;;52.25;40.17;;;10.60;87.90;;;;;;5021710;28;20026;-70
2021/09/23 03:37:53;;;;;;;56.40;40.78;;;10.60;87.90;;;;;;5014406;28;20029;-71
2021/09/23 03:40:19;;;;;;;54.70;42.17;;;10.60;87.90;;;;;;5017844;28;20046;-72
2021/09/23 03:42:44;;;;;;;56.60;41.80;;;10.60;87.90;;;;;;5025581;28;20041;-69
2021/09/23 03:45:10;;;;;;;57.38;41.47;;;10.60;88.00;;;;;;5019458;28;20045;-70
2021/09/23 03:47:36;;;;;;;52.50;39.78;;;10.60;88.00;;;;;;5024310;28;20041;-71
2021/09/23 03:50:05;;;;;;;51.92;40.45;;;10.60;87.90;;;;;;5019531;28;20037;-73
2021/09/23 03:52:30;;;;;;;54.78;40.15;;;10.50;87.90;;;;;;5023756;28;20034;-70
2021/09/23 03:54:56;;;;;;;56.05;41.03;;;10.50;88.00;;;;;;5017978;28;20128;-70
2021/09/23 03:57:22;;;;;;;59.42;43.67;;;10.50;88.10;;;;;;5021390;28;20921;-70
2021/09/23 03:59:48;;;;;;;59.92;41.85;;;10.60;88.20;;;;;;5013293;28;20367;-69
2021/09/23 04:02:14;;;;;;;57.13;41.05;;;10.60;88.30;;;;;;5019209;28;20030;-70
2021/09/23 04:04:40;;;;;;;56.78;43.03;;;10.60;88.30;;;;;;5021765;28;20462;-68
2021/09/23 04:07:06;;;;;;;55.95;40.60;;;10.50;88.30;;;;;;5015632;28;20026;-70
2021/09/23 04:09:32;;;;;;;58.33;41.97;;;10.60;88.40;;;;;;5017917;28;20069;-69
2021/09/23 04:11:58;;;;;;;57.53;41.22;;;10.50;88.40;;;;;;4993441;28;20521;-70
2021/09/23 04:14:23;;;;;;;54.72;40.55;;;10.50;88.40;;;;;;4994495;28;20073;-69
2021/09/23 04:16:50;;;;;;;58.05;41.45;;;10.50;88.40;;;;;;4990104;28;20039;-73
2021/09/23 04:19:17;;;;;;;58.60;42.50;;;10.50;88.50;;;;;;4994828;28;20474;-70
2021/09/23 04:21:42;;;;;;;53.15;39.72;;;10.40;88.60;;;;;;4995508;28;20030;-70
2021/09/23 04:24:08;;;;;;;53.67;38.40;;;10.40;88.60;;;;;;4993823;28;20033;-71
2021/09/23 04:26:34;;;;;;;54.28;39.45;;;10.40;88.60;;;;;;4995404;28;20050;-69
2021/09/23 04:29:00;;;;;;;54.45;39.20;;;10.40;88.60;;;;;;4990465;28;20026;-70
2021/09/23 04:31:25;;;;;;;54.10;38.80;;;10.40;88.60;;;;;;4996870;28;20030;-69
2021/09/23 04:33:51;;;;;;;56.58;41.53;;;10.50;88.60;;;;;;4995843;28;20070;-70
2021/09/23 04:36:17;;;;;;;53.95;39.70;;;10.50;88.60;;;;;;4997180;28;20497;-69
2021/09/23 04:38:42;;;;;;;52.33;38.30;;;10.40;88.50;;;;;;4995503;28;20047;-72
2021/09/23 04:41:11;;;;;;;55.35;40.00;;;10.40;88.50;;;;;;4995453;28;20045;-73
2021/09/23 04:43:37;;;;;;;55.10;38.45;;;10.40;88.50;;;;;;5011815;28;20470;-69
2021/09/23 04:46:03;;;;;;;48.42;36.90;;;10.40;88.50;;;;;;4998873;28;20478;-69
2021/09/23 04:48:29;;;;;;;52.58;39.35;;;10.40;88.50;;;;;;4996412;28;20034;-71
2021/09/23 04:50:55;;;;;;;52.90;38.45;;;10.40;88.60;;;;;;4998013;28;20034;-68
2021/09/23 04:53:20;;;;;;;53.80;40.03;;;10.40;88.50;;;;;;4996942;28;20057;-69
2021/09/23 04:55:46;;;;;;;52.83;38.47;;;10.40;88.40;;;;;;4994938;28;20054;-70
2021/09/23 04:58:12;;;;;;;52.38;36.53;;;10.40;88.50;;;;;;4990863;28;20031;-72
2021/09/23 05:00:37;;;;;;;53.30;39.03;;;10.30;88.50;;;;;;5001917;28;20098;-71
2021/09/23 05:03:03;;;;;;;52.17;37.47;;;10.30;88.60;;;;;;4997080;28;20057;-70
2021/09/23 05:05:29;;;;;;;53.78;38.03;;;10.30;88.60;;;;;;5000937;28;20127;-70
2021/09/23 05:07:55;;;;;;;54.47;40.30;;;10.30;88.60;;;;;;4998236;28;20038;-70
2021/09/23 05:10:21;;;;;;;49.03;36.92;;;10.40;88.60;;;;;;4995895;28;20540;-75
2021/09/23 05:12:46;;;;;;;52.10;36.95;;;10.30;88.50;;;;;;4998593;28;20074;-70
2021/09/23 05:15:12;;;;;;;52.63;39.13;;;10.30;88.50;;;;;;5005741;28;20045;-72
2021/09/23 05:17:39;;;;;;;50.00;38.10;;;10.30;88.60;;;;;;4999151;28;20049;-70
2021/09/23 05:20:06;;;;;;;51.05;37.28;;;10.40;88.60;;;;;;4996341;28;20064;-69
2021/09/23 05:22:32;;;;;;;53.50;38.40;;;10.40;88.60;;;;;;5001924;28;20050;-69
2021/09/23 05:24:58;;;;;;;50.42;37.75;;;10.40;88.70;;;;;;4997799;28;20031;-70
2021/09/23 05:27:23;;;;;;;55.05;39.92;;;10.50;88.80;;;;;;4999609;28;20054;-70
2021/09/23 05:29:49;;;;;;;54.33;39.33;;;10.50;88.70;;;;;;4999533;28;20043;-71
2021/09/23 05:32:15;;;;;;;54.50;39.58;;;10.50;88.70;;;;;;4999166;28;20406;-72
2021/09/23 05:34:41;;;;;;;52.08;39.92;;;10.50;88.80;;;;;;4998045;28;20077;-70
2021/09/23 05:37:07;;;;;;;54.75;39.45;;;10.50;88.90;;;;;;4988576;28;20079;-70
2021/09/23 05:39:32;;;;;;;51.30;37.67;;;10.60;88.90;;;;;;4996192;28;20098;-72
2021/09/23 05:41:58;;;;;;;53.65;39.55;;;10.50;88.90;;;;;;4999290;28;20117;-70
2021/09/23 05:44:24;;;;;;;52.58;38.83;;;10.50;88.90;;;;;;4997442;28;20147;-69
2021/09/23 05:46:56;;;;;;;53.53;39.58;;;10.50;88.80;;;;;;5000281;28;20046;-74
2021/09/23 05:49:22;;;;;;;56.75;40.38;;;10.50;88.90;;;;;;4997900;28;20045;-71
2021/09/23 05:51:49;;;;;;;55.60;41.08;;;10.60;89.00;;;;;;4995858;28;20046;-71
2021/09/23 05:54:15;;;;;;;56.30;38.58;;;10.60;89.00;;;;;;4997002;28;20031;-70
2021/09/23 05:56:41;;;;;;;49.25;37.10;;;10.60;89.10;;;;;;5001439;28;20712;-71
2021/09/23 05:59:08;;;;;;;57.15;41.00;;;10.70;89.10;;;;;;4996701;28;20483;-73
2021/09/23 06:01:34;;;;;;;55.55;40.05;;;10.70;89.10;;;;;;5000534;28;20047;-71
2021/09/23 06:04:00;;;;;;;55.55;40.38;;;10.70;89.10;;;;;;4995201;28;20057;-71
2021/09/23 06:06:25;;;;;;;56.28;41.35;;;10.70;89.20;;;;;;4996611;28;20065;-70
2021/09/23 06:08:51;;;;;;;57.17;40.95;;;10.80;89.20;;;;;;4999906;28;20057;-70
2021/09/23 06:11:17;;;;;;;62.08;44.55;;;10.90;89.20;;;;;;4997075;28;20046;-70
2021/09/23 06:13:43;;;;;;;60.47;42.88;;;10.90;89.30;;;;;;5000784;28;20054;-71
2021/09/23 06:16:09;;;;;;;64.18;43.63;;;11.00;89.40;;;;;;5000118;28;20034;-69
2021/09/23 06:18:36;;;;;;;59.63;41.20;;;11.10;89.30;;;;;;5000903;28;20045;-73
2021/09/23 06:21:04;;;;;;;62.95;42.50;;;11.10;89.30;;;;;;4990446;28;20041;-69
2021/09/23 06:23:29;;;;;;;57.10;40.65;;;11.10;89.30;;;;;;5001850;28;20034;-69
2021/09/23 06:25:55;;;;;;;53.08;38.60;;;11.40;89.50;;;;;;4996467;28;20050;-70
2021/09/23 06:28:21;;;;;;;50.72;38.47;;;11.80;88.40;;;;;;4999545;28;20034;-70
2021/09/23 06:30:46;;;;;;;44.00;33.20;;;12.40;87.40;;;;;;4999866;28;20437;-75
2021/09/23 06:33:12;;;;;;;43.88;34.55;;;12.90;84.90;;;;;;4999545;28;20045;-69
2021/09/23 06:35:38;;;;;;;44.03;34.28;;;13.40;83.20;;;;;;4995038;28;20061;-70
2021/09/23 06:38:04;;;;;;;42.30;32.88;;;13.70;81.60;;;;;;4998606;28;20037;-72
2021/09/23 06:40:29;;;;;;;51.70;34.50;;;14.00;80.50;;;;;;5001255;28;20049;-69
2021/09/23 06:42:55;;;;;;;42.58;32.80;;;14.00;79.30;;;;;;4995140;28;20058;-71
2021/09/23 06:45:21;;;;;;;47.13;34.28;;;13.90;79.70;;;;;;4998676;28;20451;-70
2021/09/23 06:47:46;;;;;;;49.05;34.92;;;13.40;81.30;;;;;;4996161;28;20129;-68
2021/09/23 06:50:13;;;;;;;47.65;36.20;;;13.20;82.30;;;;;;4993930;28;20121;-70
2021/09/23 06:52:39;;;;;;;52.90;37.85;;;13.10;83.20;;;;;;4999231;28;20042;-68
2021/09/23 06:55:05;;;;;;;47.67;37.35;;;12.90;83.60;;;;;;4998948;28;20046;-69
2021/09/23 06:57:31;;;;;;;50.90;38.35;;;12.80;84.20;;;;;;4996278;28;20073;-67
2021/09/23 06:59:56;;;;;;;52.83;38.13;;;12.80;84.50;;;;;;4999224;28;20085;-69
2021/09/23 07:02:22;;;;;;;51.28;37.83;;;12.70;85.10;;;;;;4998593;28;20042;-67
2021/09/23 07:04:48;;;;;;;52.03;37.95;;;12.80;85.70;;;;;;4999487;28;20035;-70
2021/09/23 07:07:13;;;;;;;48.05;36.13;;;12.90;85.40;;;;;;4993973;28;20034;-67
2021/09/23 07:09:39;;;;;;;57.47;39.85;;;12.90;85.30;;;;;;4997773;28;20034;-67
2021/09/23 07:12:05;;;;;;;57.13;39.60;;;12.90;85.40;;;;;;4998719;28;20032;-67
2021/09/23 07:14:31;;;;;;;54.30;39.05;;;12.90;85.70;;;;;;4997336;28;20030;-67
2021/09/23 07:16:56;;;;;;;52.13;38.92;;;13.00;85.80;;;;;;4987527;28;20034;-67
2021/09/23 07:19:22;;;;;;;55.10;41.00;;;13.00;85.90;;;;;;4995355;28;20552;-67
2021/09/23 07:21:48;;;;;;;53.42;39.75;;;13.10;85.90;;;;;;4999782;28;20084;-67
2021/09/23 07:24:13;;;;;;;51.60;38.20;;;13.10;85.90;;;;;;4998254;28;20027;-69
2021/09/23 07:26:40;;;;;;;48.53;36.92;;;13.30;85.90;;;;;;4999941;28;20047;-68
2021/09/23 07:29:07;;;;;;;53.10;39.70;;;13.50;85.80;;;;;;4999188;28;20046;-67
2021/09/23 07:31:32;;;;;;;52.10;39.70;;;13.60;85.60;;;;;;4997485;28;20085;-68
2021/09/23 07:33:58;;;;;;;57.35;38.25;;;13.70;85.30;;;;;;4998661;28;20042;-70
2021/09/23 07:36:24;;;;;;;53.75;38.58;;;13.90;85.00;;;;;;4991174;28;20099;-67
2021/09/23 07:38:49;;;;;;;51.28;36.70;;;14.10;84.70;;;;;;4996677;28;20058;-68
2021/09/23 07:41:15;;;;;;;52.05;37.05;;;14.20;84.40;;;;;;4992994;28;20030;-70
2021/09/23 07:43:41;;;;;;;51.53;39.08;;;14.30;84.20;;;;;;4994054;28;20034;-69
2021/09/23 07:46:06;;;;;;;52.92;37.67;;;14.50;84.10;;;;;;4996283;28;20046;-70
2021/09/23 07:48:32;;;;;;;51.85;37.03;;;14.70;83.60;;;;;;4995963;28;20038;-68
2021/09/23 07:50:58;;;;;;;50.28;36.60;;;14.80;82.80;;;;;;4998539;28;20043;-70
2021/09/23 07:53:25;;;;;;;49.53;36.88;;;15.00;82.80;;;;;;4996353;28;20450;-68
2021/09/23 07:55:52;;;;;;;49.83;36.97;;;15.20;82.20;;;;;;4999117;28;20041;-73
2021/09/23 07:58:18;;;;;;;48.92;36.58;;;15.40;81.50;;;;;;4999090;28;20534;-68
2021/09/23 08:00:44;;;;;;;48.78;36.22;;;15.50;81.50;;;;;;4994183;28;20062;-68
2021/09/23 08:03:09;;;;;;;52.67;37.33;;;15.60;81.80;;;;;;4995487;28;20077;-68
2021/09/23 08:05:35;;;;;;;49.08;37.08;;;16.00;81.70;;;;;;4993730;28;20454;-68
2021/09/23 08:08:02;;;;;;;47.38;35.65;;;16.10;81.10;;;;;;4997595;28;20042;-68
2021/09/23 08:10:28;;;;;;;45.28;34.58;;;16.30;80.80;;;;;;4997666;28;20046;-69
2021/09/23 08:12:54;;;;;;;50.55;34.45;;;16.50;80.20;;;;;;4998382;28;20045;-70
2021/09/23 08:15:20;;;;;;;44.92;33.53;;;16.70;80.00;;;;;;4998577;28;20030;-68
2021/09/23 08:17:45;;;;;;;39.70;29.55;;;16.90;80.00;;;;;;4992763;28;20039;-68
2021/09/23 08:20:11;;;;;;;35.83;26.42;;;17.00;79.50;;;;;;4989943;28;20034;-71
2021/09/23 08:22:37;;;;;;;35.90;25.88;;;17.10;78.60;;;;;;4998541;28;20066;-67
2021/09/23 08:25:04;;;;;;;36.70;25.70;;;17.30;78.10;;;;;;4991366;28;20043;-68
2021/09/23 08:27:30;;;;;;;33.15;25.63;;;17.40;78.20;;;;;;4990870;28;20039;-67
2021/09/23 08:29:56;;;;;;;29.63;23.33;;;17.40;77.40;;;;;;4988304;28;20031;-68
2021/09/23 08:32:22;;;;;;;30.48;24.33;;;17.60;77.40;;;;;;4990177;28;20043;-68
2021/09/23 08:34:48;;;;;;;33.47;23.92;;;17.60;76.00;;;;;;4993887;28;20039;-69
2021/09/23 08:37:14;;;;;;;33.55;22.70;;;17.70;75.40;;;;;;4995976;28;20057;-69
2021/09/23 08:39:40;;;;;;;31.50;23.00;;;17.70;75.20;;;;;;4998887;28;20038;-71
2021/09/23 08:42:06;;;;;;;30.23;21.70;;;17.70;75.30;;;;;;4992530;28;20034;-68
2021/09/23 08:44:32;;;;;;;28.92;22.20;;;17.70;75.10;;;;;;5000443;28;20045;-67
2021/09/23 08:46:58;;;;;;;28.58;21.05;;;17.70;75.00;;;;;;4996539;28;20041;-68
2021/09/23 08:49:24;;;;;;;29.55;20.23;;;17.70;75.10;;;;;;4995620;28;20034;-68
2021/09/23 08:51:50;;;;;;;28.10;18.88;;;17.80;74.90;;;;;;5001287;28;20049;-68
2021/09/23 08:54:17;;;;;;;23.45;18.20;;;18.00;74.80;;;;;;4998436;28;20136;-71
2021/09/23 08:56:44;;;;;;;22.50;18.20;;;18.00;73.90;;;;;;5003664;28;20027;-72
2021/09/23 08:59:10;;;;;;;23.95;18.25;;;18.00;74.30;;;;;;5003773;28;20035;-72
2021/09/23 09:01:45;;;;;;;24.75;17.55;;;18.20;73.70;;;;;;5005886;28;20050;-69
2021/09/23 09:04:11;;;;;;;19.98;16.60;;;18.40;72.60;;;;;;5003072;28;20493;-71
2021/09/23 09:06:37;;;;;;;27.52;17.40;;;18.30;72.80;;;;;;5000443;28;20049;-67
2021/09/23 09:09:04;;;;;;;24.08;17.08;;;18.40;72.20;;;;;;5002134;28;20042;-68
2021/09/23 09:11:30;;;;;;;25.30;16.25;;;18.40;72.30;;;;;;5004152;28;20109;-69
2021/09/23 09:13:56;;;;;;;22.45;16.92;;;18.30;72.40;;;;;;5004571;28;20125;-67
2021/09/23 09:16:27;;;;;;;22.02;15.95;;;18.30;71.80;;;;;;5001511;28;20035;-69
2021/09/23 09:18:57;;;;;;;22.08;16.45;;;18.20;72.30;;;;;;5005269;28;20041;-72
2021/09/23 09:21:25;;;;;;;20.65;16.52;;;18.40;72.00;;;;;;5004629;28;20058;-68
2021/09/23 09:23:54;;;;;;;20.42;15.73;;;18.60;71.60;;;;;;5006312;28;20041;-68
2021/09/23 09:26:25;;;;;;;21.70;15.55;;;18.80;70.90;;;;;;5005178;28;20034;-67
2021/09/23 09:28:58;;;;;;;21.33;15.32;;;18.80;71.20;;;;;;5000902;28;20034;-77
2021/09/23 09:31:24;;;;;;;19.92;15.52;;;18.80;70.80;;;;;;4999140;28;20038;-75
2021/09/23 09:33:52;;;;;;;19.13;15.43;;;18.60;71.10;;;;;;5001870;28;20065;-74
2021/09/23 09:36:37;;;;;;;20.50;15.30;;;18.60;71.20;;;;;;5001361;28;20041;-75
2021/09/23 09:39:15;;;;;;;20.98;15.98;;;18.20;72.30;;;;;;5013387;28;20765;-77
2021/09/23 09:41:44;;;;;;;20.20;14.10;;;18.60;71.90;;;;;;4998599;28;20043;-74
2021/09/23 09:44:12;;;;;;;16.83;11.98;;;18.70;71.60;;;;;;4999710;28;20045;-71
2021/09/23 09:46:47;;;;;;;15.48;10.73;;;19.10;70.60;;;;;;5004711;28;20038;-74
2021/09/23 09:49:13;;;;;;;15.25;9.88;;;19.50;69.00;;;;;;5005483;28;20101;-70
2021/09/23 09:51:46;;;;;;;13.65;8.15;;;19.50;68.20;;;;;;5002770;28;20058;-70
2021/09/23 09:54:13;;;;;;;13.90;8.30;;;19.20;68.30;;;;;;5003566;28;20046;-70
2021/09/23 09:56:42;;;;;;;13.25;8.07;;;19.10;68.60;;;;;;5020408;28;20050;-84
2021/09/23 09:59:10;;;;;;;13.18;7.93;;;19.10;68.40;;;;;;5003608;28;20034;-72
2021/09/23 10:01:37;;;;;;;12.30;7.70;;;19.00;69.40;;;;;;5002182;28;20034;-75
2021/09/23 10:04:03;;;;;;;11.30;7.38;;;19.40;68.70;;;;;;5006256;28;20030;-75
2021/09/23 10:06:31;;;;;;;12.73;7.05;;;19.50;67.50;;;;;;4997667;28;21426;-73
2021/09/23 10:08:57;;;;;;;12.32;7.55;;;19.10;68.10;;;;;;5002705;28;20273;-75
2021/09/23 10:11:23;;;;;;;14.00;7.18;;;19.00;69.80;;;;;;5000913;28;20038;-76
2021/09/23 10:13:49;;;;;;;13.13;7.18;;;19.20;68.90;;;;;;5000781;28;20058;-70
2021/09/23 10:16:15;;;;;;;11.27;6.45;;;18.90;68.40;;;;;;4999344;28;20119;-74
2021/09/23 10:18:42;;;;;;;13.18;6.63;;;18.60;69.30;;;;;;4999331;28;20126;-77
2021/09/23 10:21:09;;;;;;;12.48;7.68;;;18.30;69.60;;;;;;5007938;28;20288;-74
2021/09/23 10:23:41;;;;;;;11.00;6.07;;;18.50;69.90;;;;;;5004337;28;20042;-74
2021/09/23 10:26:14;;;;;;;12.05;6.70;;;19.10;68.40;;;;;;5003901;28;20053;-75
2021/09/23 10:28:45;;;;;;;15.43;6.85;;;19.60;66.90;;;;;;4997363;28;20034;-70
2021/09/23 10:31:18;;;;;;;10.57;5.60;;;19.60;66.30;;;;;;5002547;28;20551;-79
2021/09/23 10:33:46;;;;;;;9.35;4.88;;;19.40;66.20;;;;;;4999363;28;20043;-80
2021/09/23 10:36:12;;;;;;;11.48;4.95;;;19.50;66.90;;;;;;5000067;28;20050;-79
2021/09/23 10:38:40;;;;;;;9.27;4.95;;;19.20;66.50;;;;;;4998594;28;20089;-73
2021/09/23 10:41:06;;;;;;;10.43;4.63;;;19.00;67.30;;;;;;5000315;28;20031;-75
2021/09/23 10:43:32;;;;;;;9.85;4.60;;;18.90;67.40;;;;;;5004322;28;20039;-71
2021/09/23 10:46:00;;;;;;;9.10;4.80;;;18.60;68.00;;;;;;5001978;28;20066;-81
2021/09/23 10:48:28;;;;;;;8.50;3.83;;;18.60;68.50;;;;;;5000427;28;20023;-73
2021/09/23 10:50:54;;;;;;;8.65;3.92;;;19.40;67.10;;;;;;5001702;28;20066;-73
2021/09/23 10:53:20;;;;;;;10.38;4.63;;;20.00;65.20;;;;;;5000121;28;20046;-79
2021/09/23 10:55:46;;;;;;;8.60;4.03;;;20.50;62.60;;;;;;5000619;28;20027;-76
2021/09/23 10:58:19;;;;;;;8.52;3.40;;;20.60;63.10;;;;;;4998438;28;20037;-78
2021/09/23 11:00:45;;;;;;;8.20;3.80;;;20.80;61.80;;;;;;5001987;28;20049;-71
2021/09/23 11:03:12;;;;;;;7.72;3.55;;;21.10;60.90;;;;;;4999237;28;20030;-72
2021/09/23 11:05:41;;;;;;;8.45;3.45;;;21.00;60.70;;;;;;5000169;28;20496;-73
2021/09/23 11:08:12;;;;;;;7.63;3.10;;;21.10;60.30;;;;;;5001584;28;20042;-77
2021/09/23 11:10:42;;;;;;;8.15;3.67;;;20.80;61.80;;;;;;5003175;28;20061;-79
2021/09/23 11:13:10;;;;;;;12.10;3.47;;;20.90;61.00;;;;;;5000551;28;20054;-72
2021/09/23 11:15:40;;;;;;;10.82;3.38;;;21.00;60.60;;;;;;4998250;28;20057;-79
2021/09/23 11:18:08;;;;;;;8.02;3.20;;;21.10;61.30;;;;;;5001342;28;20042;-72
2021/09/23 11:20:36;;;;;;;10.65;3.53;;;21.30;60.60;;;;;;5000161;28;20045;-74
2021/09/23 11:23:05;;;;;;;5.78;3.00;;;21.30;60.20;;;;;;5002705;28;20086;-74
2021/09/23 11:25:34;;;;;;;6.90;2.95;;;21.20;60.50;;;;;;4997390;28;20043;-78
2021/09/23 11:28:01;;;;;;;9.02;3.60;;;21.10;60.40;;;;;;5002190;28;20053;-81
2021/09/23 11:30:34;;;;;;;9.20;3.65;;;21.10;61.00;;;;;;5004672;28;20039;-73
2021/09/23 11:33:04;;;;;;;10.68;3.28;;;21.30;60.60;;;;;;5000516;28;20048;-75
2021/09/23 11:35:34;;;;;;;9.45;3.03;;;21.50;60.10;;;;;;5000704;28;20054;-74
2021/09/23 11:38:00;;;;;;;9.90;3.65;;;21.70;60.00;;;;;;5003281;28;20097;-73
2021/09/23 11:40:29;;;;;;;7.38;3.15;;;21.90;59.10;;;;;;5007086;28;20064;-73
2021/09/23 11:42:55;;;;;;;10.02;3.33;;;22.00;57.80;;;;;;5003350;28;20056;-76
2021/09/23 11:45:26;;;;;;;10.50;3.20;;;22.00;58.60;;;;;;4999003;28;22424;-72
2021/09/23 11:48:00;;;;;;;8.48;3.03;;;21.80;58.40;;;;;;4997436;28;20041;-75
2021/09/23 11:50:36;;;;;;;7.45;2.88;;;21.70;58.80;;;;;;5000837;28;20047;-73
2021/09/23 11:53:18;;;;;;;9.63;3.20;;;21.20;60.60;;;;;;5000324;28;20107;-75
2021/09/23 11:56:07;;;;;;;9.63;3.47;;;21.50;60.00;;;;;;5012481;28;20039;-80
2021/09/23 11:58:38;;;;;;;8.70;3.38;;;21.60;58.20;;;;;;5020205;28;20034;-75
2021/09/23 12:01:04;;;;;;;11.70;3.67;;;21.60;59.40;;;;;;5020752;28;20216;-71
2021/09/23 12:03:39;;;;;;;8.68;2.65;;;21.60;58.30;;;;;;5018111;28;20049;-78
2021/09/23 12:06:10;;;;;;;8.82;3.25;;;21.70;58.30;;;;;;5020174;28;20059;-74
2021/09/23 12:08:35;;;;;;;7.95;3.30;;;21.60;58.90;;;;;;5022477;28;20068;-74
2021/09/23 12:11:04;;;;;;;10.98;2.88;;;21.40;58.50;;;;;;5025981;28;20034;-72
2021/09/23 12:13:37;;;;;;;9.93;2.90;;;21.40;58.10;;;;;;5025933;28;20038;-75
2021/09/23 12:16:09;;;;;;;10.05;2.53;;;21.40;58.50;;;;;;5020459;28;20048;-80
2021/09/23 12:18:35;;;;;;;8.80;2.63;;;21.60;58.20;;;;;;5025942;28;20042;-78
2021/09/23 12:21:12;;;;;;;8.70;2.60;;;21.70;57.70;;;;;;5019788;28;20058;-72
2021/09/23 12:23:40;;;;;;;10.02;2.88;;;21.50;58.60;;;;;;5020888;28;20052;-74
2021/09/23 12:26:33;;;;;;;8.63;2.30;;;21.60;59.80;;;;;;5020754;28;20402;-73
2021/09/23 12:29:19;;;;;;;7.22;2.35;;;21.80;58.80;;;;;;5018938;28;20030;-73
2021/09/23 12:32:04;;;;;;;5.80;2.65;;;22.10;57.50;;;;;;5005490;28;20034;-71